sensor_id;sensor_type;location;lat;lon;timestamp;P1;durP1;ratioP1;P2;durP2;ratioP2
71296;SDS011;59082;50.658;4.608;2023-09-30T00:00:36;14.18;;;7.47;;
71296;SDS011;59082;50.658;4.608;2023-09-30T00:03:05;13.57;;;7.70;;
71296;SDS011;59082;50.658;4.608;2023-09-30T00:05:33;12.05;;;6.95;;
71296;SDS011;59082;50.658;4.608;2023-09-30T00:10:47;12.93;;;5.80;;
71296;SDS011;59082;50.658;4.608;2023-09-30T00:15:59;15.73;;;7.38;;
71296;SDS011;59082;50.658;4.608;2023-09-30T00:18:27;14.32;;;6.47;;
71296;SDS011;59082;50.658;4.608;2023-09-30T00:23:24;10.47;;;7.00;;
71296;SDS011;59082;50.658;4.608;2023-09-30T00:25:53;13.40;;;7.45;;
71296;SDS011;59082;50.658;4.608;2023-09-30T00:28:21;13.05;;;6.68;;
71296;SDS011;59082;50.658;4.608;2023-09-30T00:30:50;13.90;;;6.75;;
71296;SDS011;59082;50.658;4.608;2023-09-30T00:33:18;14.35;;;6.55;;
71296;SDS011;59082;50.658;4.608;2023-09-30T00:40:48;15.52;;;7.55;;
71296;SDS011;59082;50.658;4.608;2023-09-30T00:43:23;16.13;;;7.47;;
71296;SDS011;59082;50.658;4.608;2023-09-30T00:45:48;16.38;;;7.45;;
71296;SDS011;59082;50.658;4.608;2023-09-30T00:48:17;15.63;;;6.97;;
71296;SDS011;59082;50.658;4.608;2023-09-30T00:50:43;14.73;;;8.05;;
71296;SDS011;59082;50.658;4.608;2023-09-30T00:53:08;21.65;;;10.40;;
71296;SDS011;59082;50.658;4.608;2023-09-30T00:55:37;22.13;;;9.63;;
71296;SDS011;59082;50.658;4.608;2023-09-30T00:58:04;24.17;;;10.38;;
71296;SDS011;59082;50.658;4.608;2023-09-30T01:00:30;30.40;;;11.77;;
71296;SDS011;59082;50.658;4.608;2023-09-30T01:02:59;20.58;;;10.25;;
71296;SDS011;59082;50.658;4.608;2023-09-30T01:05:29;25.38;;;9.80;;
71296;SDS011;59082;50.658;4.608;2023-09-30T01:07:55;21.53;;;10.43;;
71296;SDS011;59082;50.658;4.608;2023-09-30T01:10:27;25.85;;;11.23;;
71296;SDS011;59082;50.658;4.608;2023-09-30T01:15:22;26.75;;;11.52;;
71296;SDS011;59082;50.658;4.608;2023-09-30T01:17:53;28.67;;;11.43;;
71296;SDS011;59082;50.658;4.608;2023-09-30T01:20:22;33.40;;;11.70;;
71296;SDS011;59082;50.658;4.608;2023-09-30T01:25:17;30.42;;;12.05;;
71296;SDS011;59082;50.658;4.608;2023-09-30T01:27:43;30.70;;;12.57;;
71296;SDS011;59082;50.658;4.608;2023-09-30T01:30:15;26.08;;;11.40;;
71296;SDS011;59082;50.658;4.608;2023-09-30T01:35:11;32.40;;;12.85;;
71296;SDS011;59082;50.658;4.608;2023-09-30T01:37:36;27.43;;;13.20;;
71296;SDS011;59082;50.658;4.608;2023-09-30T01:50:01;29.08;;;13.25;;
71296;SDS011;59082;50.658;4.608;2023-09-30T01:52:27;31.17;;;13.30;;
71296;SDS011;59082;50.658;4.608;2023-09-30T01:57:23;36.88;;;15.05;;
71296;SDS011;59082;50.658;4.608;2023-09-30T02:02:17;36.17;;;14.65;;
71296;SDS011;59082;50.658;4.608;2023-09-30T02:04:48;41.33;;;15.80;;
71296;SDS011;59082;50.658;4.608;2023-09-30T02:07:16;35.53;;;14.90;;
71296;SDS011;59082;50.658;4.608;2023-09-30T02:09:42;36.08;;;14.90;;
71296;SDS011;59082;50.658;4.608;2023-09-30T02:12:08;36.17;;;15.27;;
71296;SDS011;59082;50.658;4.608;2023-09-30T02:14:34;40.80;;;15.07;;
71296;SDS011;59082;50.658;4.608;2023-09-30T02:17:05;35.07;;;15.43;;
71296;SDS011;59082;50.658;4.608;2023-09-30T02:19:32;29.58;;;13.55;;
71296;SDS011;59082;50.658;4.608;2023-09-30T02:22:02;41.08;;;14.85;;
71296;SDS011;59082;50.658;4.608;2023-09-30T02:24:28;34.47;;;14.02;;
71296;SDS011;59082;50.658;4.608;2023-09-30T02:29:28;36.20;;;13.63;;
71296;SDS011;59082;50.658;4.608;2023-09-30T02:31:55;33.78;;;13.27;;
71296;SDS011;59082;50.658;4.608;2023-09-30T02:34:20;31.00;;;13.27;;
71296;SDS011;59082;50.658;4.608;2023-09-30T02:36:46;31.37;;;14.13;;
71296;SDS011;59082;50.658;4.608;2023-09-30T02:39:15;34.47;;;14.38;;
71296;SDS011;59082;50.658;4.608;2023-09-30T02:44:12;28.48;;;13.30;;
71296;SDS011;59082;50.658;4.608;2023-09-30T02:46:38;28.50;;;13.07;;
71296;SDS011;59082;50.658;4.608;2023-09-30T02:49:03;34.83;;;13.55;;
71296;SDS011;59082;50.658;4.608;2023-09-30T02:51:29;33.50;;;13.47;;
71296;SDS011;59082;50.658;4.608;2023-09-30T02:56:33;34.25;;;13.13;;
71296;SDS011;59082;50.658;4.608;2023-09-30T02:59:00;26.70;;;12.33;;
71296;SDS011;59082;50.658;4.608;2023-09-30T03:01:28;27.35;;;13.32;;
71296;SDS011;59082;50.658;4.608;2023-09-30T03:03:56;28.70;;;11.35;;
71296;SDS011;59082;50.658;4.608;2023-09-30T03:06:24;22.02;;;11.55;;
71296;SDS011;59082;50.658;4.608;2023-09-30T03:08:50;23.33;;;11.40;;
71296;SDS011;59082;50.658;4.608;2023-09-30T03:11:23;23.27;;;10.43;;
71296;SDS011;59082;50.658;4.608;2023-09-30T03:16:18;24.73;;;12.82;;
71296;SDS011;59082;50.658;4.608;2023-09-30T03:18:48;27.88;;;10.80;;
71296;SDS011;59082;50.658;4.608;2023-09-30T03:23:43;23.67;;;11.87;;
71296;SDS011;59082;50.658;4.608;2023-09-30T03:26:08;30.83;;;12.52;;
71296;SDS011;59082;50.658;4.608;2023-09-30T03:28:36;33.33;;;14.80;;
71296;SDS011;59082;50.658;4.608;2023-09-30T03:33:40;31.98;;;14.02;;
71296;SDS011;59082;50.658;4.608;2023-09-30T03:36:13;30.17;;;13.80;;
71296;SDS011;59082;50.658;4.608;2023-09-30T03:41:10;29.63;;;13.98;;
71296;SDS011;59082;50.658;4.608;2023-09-30T03:46:09;24.70;;;11.82;;
71296;SDS011;59082;50.658;4.608;2023-09-30T03:53:44;25.58;;;11.52;;
71296;SDS011;59082;50.658;4.608;2023-09-30T03:56:16;27.65;;;13.43;;
71296;SDS011;59082;50.658;4.608;2023-09-30T03:58:44;26.95;;;14.15;;
71296;SDS011;59082;50.658;4.608;2023-09-30T04:01:16;30.17;;;12.00;;
71296;SDS011;59082;50.658;4.608;2023-09-30T04:03:44;28.08;;;13.00;;
71296;SDS011;59082;50.658;4.608;2023-09-30T04:06:09;27.30;;;12.18;;
71296;SDS011;59082;50.658;4.608;2023-09-30T04:08:36;31.07;;;13.07;;
71296;SDS011;59082;50.658;4.608;2023-09-30T04:11:13;24.85;;;12.63;;
71296;SDS011;59082;50.658;4.608;2023-09-30T04:16:41;24.50;;;12.53;;
71296;SDS011;59082;50.658;4.608;2023-09-30T04:19:06;26.55;;;12.27;;
71296;SDS011;59082;50.658;4.608;2023-09-30T04:21:38;27.05;;;11.35;;
71296;SDS011;59082;50.658;4.608;2023-09-30T04:24:09;30.92;;;11.88;;
71296;SDS011;59082;50.658;4.608;2023-09-30T04:29:05;26.97;;;11.47;;
71296;SDS011;59082;50.658;4.608;2023-09-30T04:31:33;27.92;;;11.38;;
71296;SDS011;59082;50.658;4.608;2023-09-30T04:34:11;24.33;;;11.38;;
71296;SDS011;59082;50.658;4.608;2023-09-30T04:36:37;24.70;;;11.90;;
71296;SDS011;59082;50.658;4.608;2023-09-30T04:39:04;30.07;;;11.57;;
71296;SDS011;59082;50.658;4.608;2023-09-30T04:44:01;25.75;;;10.77;;
71296;SDS011;59082;50.658;4.608;2023-09-30T04:46:27;29.60;;;12.03;;
71296;SDS011;59082;50.658;4.608;2023-09-30T04:48:53;32.33;;;11.90;;
71296;SDS011;59082;50.658;4.608;2023-09-30T04:51:25;33.77;;;10.80;;
71296;SDS011;59082;50.658;4.608;2023-09-30T04:53:51;25.45;;;11.05;;
71296;SDS011;59082;50.658;4.608;2023-09-30T04:56:17;25.43;;;11.83;;
71296;SDS011;59082;50.658;4.608;2023-09-30T04:58:42;24.30;;;11.30;;
71296;SDS011;59082;50.658;4.608;2023-09-30T05:01:16;27.27;;;11.57;;
71296;SDS011;59082;50.658;4.608;2023-09-30T05:03:45;30.08;;;11.88;;
71296;SDS011;59082;50.658;4.608;2023-09-30T05:06:14;23.05;;;10.88;;
71296;SDS011;59082;50.658;4.608;2023-09-30T05:09:00;26.53;;;11.73;;
71296;SDS011;59082;50.658;4.608;2023-09-30T05:11:28;28.38;;;10.75;;
71296;SDS011;59082;50.658;4.608;2023-09-30T05:13:54;22.33;;;11.23;;
71296;SDS011;59082;50.658;4.608;2023-09-30T05:16:19;22.02;;;11.63;;
71296;SDS011;59082;50.658;4.608;2023-09-30T05:18:45;26.00;;;11.60;;
71296;SDS011;59082;50.658;4.608;2023-09-30T05:21:13;28.93;;;11.10;;
71296;SDS011;59082;50.658;4.608;2023-09-30T05:23:40;26.07;;;10.97;;
71296;SDS011;59082;50.658;4.608;2023-09-30T05:26:05;26.85;;;10.95;;
71296;SDS011;59082;50.658;4.608;2023-09-30T05:28:31;26.73;;;10.87;;
71296;SDS011;59082;50.658;4.608;2023-09-30T05:30:57;25.23;;;11.03;;
71296;SDS011;59082;50.658;4.608;2023-09-30T05:33:26;22.65;;;10.93;;
71296;SDS011;59082;50.658;4.608;2023-09-30T05:35:53;23.07;;;10.87;;
71296;SDS011;59082;50.658;4.608;2023-09-30T05:38:20;27.60;;;11.82;;
71296;SDS011;59082;50.658;4.608;2023-09-30T05:40:46;27.27;;;11.50;;
71296;SDS011;59082;50.658;4.608;2023-09-30T05:43:17;28.83;;;11.57;;
71296;SDS011;59082;50.658;4.608;2023-09-30T05:45:52;28.20;;;11.53;;
71296;SDS011;59082;50.658;4.608;2023-09-30T05:48:21;32.78;;;11.95;;
71296;SDS011;59082;50.658;4.608;2023-09-30T05:50:47;34.55;;;12.68;;
71296;SDS011;59082;50.658;4.608;2023-09-30T05:53:37;29.42;;;12.23;;
71296;SDS011;59082;50.658;4.608;2023-09-30T05:59:08;32.92;;;11.77;;
71296;SDS011;59082;50.658;4.608;2023-09-30T06:02:17;31.83;;;10.88;;
71296;SDS011;59082;50.658;4.608;2023-09-30T06:04:30;28.67;;;11.70;;
71296;SDS011;59082;50.658;4.608;2023-09-30T06:06:56;28.40;;;11.73;;
71296;SDS011;59082;50.658;4.608;2023-09-30T06:09:23;28.42;;;12.05;;
71296;SDS011;59082;50.658;4.608;2023-09-30T06:11:56;32.25;;;13.43;;
71296;SDS011;59082;50.658;4.608;2023-09-30T06:14:29;31.15;;;12.40;;
71296;SDS011;59082;50.658;4.608;2023-09-30T06:16:58;33.30;;;13.00;;
71296;SDS011;59082;50.658;4.608;2023-09-30T06:19:24;33.00;;;12.43;;
71296;SDS011;59082;50.658;4.608;2023-09-30T06:21:51;31.80;;;12.10;;
71296;SDS011;59082;50.658;4.608;2023-09-30T06:24:18;25.38;;;10.55;;
71296;SDS011;59082;50.658;4.608;2023-09-30T06:26:46;27.50;;;11.30;;
71296;SDS011;59082;50.658;4.608;2023-09-30T06:29:14;30.23;;;12.00;;
71296;SDS011;59082;50.658;4.608;2023-09-30T06:31:39;24.88;;;11.65;;
71296;SDS011;59082;50.658;4.608;2023-09-30T06:34:05;26.80;;;10.53;;
71296;SDS011;59082;50.658;4.608;2023-09-30T06:36:32;28.70;;;11.88;;
71296;SDS011;59082;50.658;4.608;2023-09-30T06:39:02;24.43;;;11.27;;
71296;SDS011;59082;50.658;4.608;2023-09-30T06:41:46;24.90;;;11.15;;
71296;SDS011;59082;50.658;4.608;2023-09-30T06:44:18;25.90;;;11.03;;
71296;SDS011;59082;50.658;4.608;2023-09-30T06:46:58;31.67;;;10.27;;
71296;SDS011;59082;50.658;4.608;2023-09-30T06:49:30;32.53;;;11.70;;
71296;SDS011;59082;50.658;4.608;2023-09-30T06:52:14;33.03;;;11.02;;
71296;SDS011;59082;50.658;4.608;2023-09-30T06:54:43;26.38;;;11.38;;
71296;SDS011;59082;50.658;4.608;2023-09-30T06:57:08;23.60;;;11.67;;
71296;SDS011;59082;50.658;4.608;2023-09-30T06:59:34;23.70;;;11.02;;
71296;SDS011;59082;50.658;4.608;2023-09-30T07:02:00;27.20;;;11.87;;
71296;SDS011;59082;50.658;4.608;2023-09-30T07:04:33;24.13;;;10.30;;
71296;SDS011;59082;50.658;4.608;2023-09-30T07:06:59;23.27;;;9.80;;
71296;SDS011;59082;50.658;4.608;2023-09-30T07:09:25;27.05;;;10.55;;
71296;SDS011;59082;50.658;4.608;2023-09-30T07:11:51;28.90;;;11.40;;
71296;SDS011;59082;50.658;4.608;2023-09-30T07:14:17;32.13;;;10.98;;
71296;SDS011;59082;50.658;4.608;2023-09-30T07:16:42;29.40;;;11.70;;
71296;SDS011;59082;50.658;4.608;2023-09-30T07:19:08;36.10;;;12.37;;
71296;SDS011;59082;50.658;4.608;2023-09-30T07:21:34;42.47;;;14.33;;
71296;SDS011;59082;50.658;4.608;2023-09-30T07:23:59;36.57;;;12.00;;
71296;SDS011;59082;50.658;4.608;2023-09-30T07:26:25;32.00;;;12.33;;
71296;SDS011;59082;50.658;4.608;2023-09-30T07:28:51;38.88;;;12.38;;
71296;SDS011;59082;50.658;4.608;2023-09-30T07:31:16;39.07;;;13.77;;
71296;SDS011;59082;50.658;4.608;2023-09-30T07:33:41;37.83;;;12.80;;
71296;SDS011;59082;50.658;4.608;2023-09-30T07:36:10;31.60;;;11.87;;
71296;SDS011;59082;50.658;4.608;2023-09-30T07:38:38;29.57;;;10.57;;
71296;SDS011;59082;50.658;4.608;2023-09-30T07:41:03;34.75;;;12.52;;
71296;SDS011;59082;50.658;4.608;2023-09-30T07:43:30;25.42;;;11.70;;
71296;SDS011;59082;50.658;4.608;2023-09-30T07:45:55;23.60;;;9.97;;
71296;SDS011;59082;50.658;4.608;2023-09-30T07:48:21;29.20;;;11.00;;
71296;SDS011;59082;50.658;4.608;2023-09-30T07:50:47;23.63;;;11.52;;
71296;SDS011;59082;50.658;4.608;2023-09-30T07:53:13;21.80;;;9.40;;
71296;SDS011;59082;50.658;4.608;2023-09-30T07:55:38;22.60;;;9.63;;
71296;SDS011;59082;50.658;4.608;2023-09-30T07:58:04;22.15;;;10.55;;
71296;SDS011;59082;50.658;4.608;2023-09-30T08:00:30;28.47;;;12.13;;
71296;SDS011;59082;50.658;4.608;2023-09-30T08:02:55;25.93;;;10.17;;
71296;SDS011;59082;50.658;4.608;2023-09-30T08:05:20;24.47;;;10.53;;
71296;SDS011;59082;50.658;4.608;2023-09-30T08:07:46;25.97;;;10.97;;
71296;SDS011;59082;50.658;4.608;2023-09-30T08:12:47;24.33;;;11.40;;
71296;SDS011;59082;50.658;4.608;2023-09-30T08:15:14;25.40;;;10.70;;
71296;SDS011;59082;50.658;4.608;2023-09-30T08:17:43;26.05;;;10.65;;
71296;SDS011;59082;50.658;4.608;2023-09-30T08:20:08;26.67;;;10.17;;
71296;SDS011;59082;50.658;4.608;2023-09-30T08:22:34;17.67;;;8.07;;
71296;SDS011;59082;50.658;4.608;2023-09-30T08:27:58;20.90;;;8.25;;
71296;SDS011;59082;50.658;4.608;2023-09-30T08:30:23;13.33;;;7.77;;
71296;SDS011;59082;50.658;4.608;2023-09-30T08:32:49;16.17;;;7.30;;
71296;SDS011;59082;50.658;4.608;2023-09-30T08:35:14;16.17;;;7.70;;
71296;SDS011;59082;50.658;4.608;2023-09-30T08:37:40;14.73;;;7.68;;
71296;SDS011;59082;50.658;4.608;2023-09-30T08:40:06;15.67;;;9.00;;
71296;SDS011;59082;50.658;4.608;2023-09-30T08:42:32;19.52;;;10.23;;
71296;SDS011;59082;50.658;4.608;2023-09-30T08:44:58;25.93;;;11.83;;
71296;SDS011;59082;50.658;4.608;2023-09-30T08:47:35;27.02;;;12.80;;
71296;SDS011;59082;50.658;4.608;2023-09-30T08:50:04;22.77;;;12.60;;
71296;SDS011;59082;50.658;4.608;2023-09-30T08:52:40;20.05;;;11.00;;
71296;SDS011;59082;50.658;4.608;2023-09-30T08:55:13;14.95;;;10.43;;
71296;SDS011;59082;50.658;4.608;2023-09-30T08:57:40;20.53;;;10.63;;
71296;SDS011;59082;50.658;4.608;2023-09-30T09:03:47;18.80;;;10.70;;
71296;SDS011;59082;50.658;4.608;2023-09-30T09:09:19;15.07;;;8.65;;
71296;SDS011;59082;50.658;4.608;2023-09-30T09:11:49;15.20;;;8.32;;
71296;SDS011;59082;50.658;4.608;2023-09-30T09:20:48;16.80;;;9.27;;
71296;SDS011;59082;50.658;4.608;2023-09-30T09:33:04;14.90;;;9.10;;
71296;SDS011;59082;50.658;4.608;2023-09-30T09:35:34;13.73;;;9.03;;
71296;SDS011;59082;50.658;4.608;2023-09-30T09:38:01;13.40;;;9.18;;
71296;SDS011;59082;50.658;4.608;2023-09-30T09:40:29;17.95;;;8.85;;
71296;SDS011;59082;50.658;4.608;2023-09-30T09:42:58;14.88;;;7.93;;
71296;SDS011;59082;50.658;4.608;2023-09-30T09:45:45;13.00;;;7.38;;
71296;SDS011;59082;50.658;4.608;2023-09-30T09:48:13;13.20;;;6.70;;
71296;SDS011;59082;50.658;4.608;2023-09-30T09:50:39;14.45;;;5.80;;
71296;SDS011;59082;50.658;4.608;2023-09-30T09:53:07;12.13;;;6.38;;
71296;SDS011;59082;50.658;4.608;2023-09-30T09:55:39;12.27;;;6.33;;
71296;SDS011;59082;50.658;4.608;2023-09-30T10:01:07;11.00;;;5.07;;
71296;SDS011;59082;50.658;4.608;2023-09-30T10:03:35;8.60;;;4.72;;
71296;SDS011;59082;50.658;4.608;2023-09-30T10:06:09;8.82;;;3.67;;
71296;SDS011;59082;50.658;4.608;2023-09-30T10:08:44;10.33;;;3.97;;
71296;SDS011;59082;50.658;4.608;2023-09-30T10:11:20;10.20;;;4.28;;
71296;SDS011;59082;50.658;4.608;2023-09-30T10:13:55;8.27;;;3.13;;
71296;SDS011;59082;50.658;4.608;2023-09-30T10:27:27;10.48;;;4.88;;
71296;SDS011;59082;50.658;4.608;2023-09-30T10:30:24;7.22;;;2.67;;
71296;SDS011;59082;50.658;4.608;2023-09-30T10:40:39;6.68;;;3.03;;
71296;SDS011;59082;50.658;4.608;2023-09-30T10:45:51;7.07;;;3.17;;
71296;SDS011;59082;50.658;4.608;2023-09-30T10:54:10;5.47;;;2.00;;
71296;SDS011;59082;50.658;4.608;2023-09-30T10:56:38;7.78;;;2.80;;
71296;SDS011;59082;50.658;4.608;2023-09-30T10:59:04;6.30;;;2.67;;
71296;SDS011;59082;50.658;4.608;2023-09-30T11:01:34;6.13;;;2.37;;
71296;SDS011;59082;50.658;4.608;2023-09-30T11:04:00;6.68;;;2.38;;
71296;SDS011;59082;50.658;4.608;2023-09-30T11:06:29;6.90;;;2.67;;
71296;SDS011;59082;50.658;4.608;2023-09-30T11:08:55;5.90;;;2.80;;
71296;SDS011;59082;50.658;4.608;2023-09-30T11:14:25;6.60;;;1.98;;
71296;SDS011;59082;50.658;4.608;2023-09-30T11:16:51;5.65;;;2.83;;
71296;SDS011;59082;50.658;4.608;2023-09-30T11:19:17;4.97;;;2.65;;
71296;SDS011;59082;50.658;4.608;2023-09-30T11:21:49;6.97;;;2.33;;
71296;SDS011;59082;50.658;4.608;2023-09-30T11:24:16;6.88;;;2.50;;
71296;SDS011;59082;50.658;4.608;2023-09-30T11:26:41;5.93;;;1.75;;
71296;SDS011;59082;50.658;4.608;2023-09-30T11:29:08;5.07;;;1.50;;
71296;SDS011;59082;50.658;4.608;2023-09-30T11:31:33;5.53;;;1.33;;
71296;SDS011;59082;50.658;4.608;2023-09-30T11:33:59;5.03;;;3.13;;
71296;SDS011;59082;50.658;4.608;2023-09-30T11:36:29;9.43;;;2.60;;
71296;SDS011;59082;50.658;4.608;2023-09-30T11:38:55;5.95;;;1.70;;
71296;SDS011;59082;50.658;4.608;2023-09-30T11:41:20;8.40;;;3.23;;
71296;SDS011;59082;50.658;4.608;2023-09-30T11:44:00;5.95;;;3.03;;
71296;SDS011;59082;50.658;4.608;2023-09-30T11:46:26;4.55;;;3.03;;
71296;SDS011;59082;50.658;4.608;2023-09-30T11:49:10;4.68;;;2.60;;
71296;SDS011;59082;50.658;4.608;2023-09-30T11:51:42;5.40;;;3.53;;
71296;SDS011;59082;50.658;4.608;2023-09-30T11:54:11;4.77;;;2.70;;
71296;SDS011;59082;50.658;4.608;2023-09-30T11:56:36;6.40;;;3.15;;
71296;SDS011;59082;50.658;4.608;2023-09-30T11:59:03;4.95;;;2.33;;
71296;SDS011;59082;50.658;4.608;2023-09-30T12:01:29;4.67;;;2.60;;
71296;SDS011;59082;50.658;4.608;2023-09-30T12:03:57;5.07;;;2.22;;
71296;SDS011;59082;50.658;4.608;2023-09-30T12:06:22;5.07;;;2.20;;
71296;SDS011;59082;50.658;4.608;2023-09-30T12:08:48;4.63;;;1.30;;
71296;SDS011;59082;50.658;4.608;2023-09-30T12:11:13;4.50;;;1.23;;
71296;SDS011;59082;50.658;4.608;2023-09-30T12:13:41;3.38;;;1.20;;
71296;SDS011;59082;50.658;4.608;2023-09-30T12:16:06;6.70;;;1.33;;
71296;SDS011;59082;50.658;4.608;2023-09-30T12:18:32;5.57;;;1.43;;
71296;SDS011;59082;50.658;4.608;2023-09-30T12:20:57;5.33;;;1.57;;
71296;SDS011;59082;50.658;4.608;2023-09-30T12:23:22;4.13;;;1.73;;
71296;SDS011;59082;50.658;4.608;2023-09-30T12:25:48;3.60;;;1.52;;
71296;SDS011;59082;50.658;4.608;2023-09-30T12:28:14;5.07;;;1.60;;
71296;SDS011;59082;50.658;4.608;2023-09-30T12:30:40;3.45;;;1.40;;
71296;SDS011;59082;50.658;4.608;2023-09-30T12:33:06;3.17;;;1.73;;
71296;SDS011;59082;50.658;4.608;2023-09-30T12:35:32;3.65;;;1.48;;
71296;SDS011;59082;50.658;4.608;2023-09-30T12:37:58;5.63;;;2.00;;
71296;SDS011;59082;50.658;4.608;2023-09-30T12:40:24;6.47;;;1.90;;
71296;SDS011;59082;50.658;4.608;2023-09-30T12:42:49;2.80;;;1.77;;
71296;SDS011;59082;50.658;4.608;2023-09-30T12:45:15;3.60;;;1.53;;
71296;SDS011;59082;50.658;4.608;2023-09-30T12:47:42;4.90;;;2.15;;
71296;SDS011;59082;50.658;4.608;2023-09-30T12:50:16;2.83;;;1.30;;
71296;SDS011;59082;50.658;4.608;2023-09-30T12:52:41;6.90;;;2.05;;
71296;SDS011;59082;50.658;4.608;2023-09-30T12:55:06;3.67;;;1.60;;
71296;SDS011;59082;50.658;4.608;2023-09-30T12:57:32;4.70;;;1.42;;
71296;SDS011;59082;50.658;4.608;2023-09-30T12:59:57;4.27;;;1.20;;
71296;SDS011;59082;50.658;4.608;2023-09-30T13:02:23;4.83;;;2.20;;
71296;SDS011;59082;50.658;4.608;2023-09-30T13:04:48;3.40;;;1.60;;
71296;SDS011;59082;50.658;4.608;2023-09-30T13:07:14;3.95;;;1.35;;
71296;SDS011;59082;50.658;4.608;2023-09-30T13:09:39;4.63;;;1.80;;
71296;SDS011;59082;50.658;4.608;2023-09-30T13:12:05;3.47;;;1.67;;
71296;SDS011;59082;50.658;4.608;2023-09-30T13:14:30;5.68;;;1.90;;
71296;SDS011;59082;50.658;4.608;2023-09-30T13:16:56;3.87;;;1.67;;
71296;SDS011;59082;50.658;4.608;2023-09-30T13:19:21;3.20;;;1.13;;
71296;SDS011;59082;50.658;4.608;2023-09-30T13:21:48;3.85;;;1.70;;
71296;SDS011;59082;50.658;4.608;2023-09-30T13:24:23;3.28;;;1.60;;
71296;SDS011;59082;50.658;4.608;2023-09-30T13:26:48;3.67;;;1.63;;
71296;SDS011;59082;50.658;4.608;2023-09-30T13:29:15;4.77;;;1.63;;
71296;SDS011;59082;50.658;4.608;2023-09-30T13:31:41;4.93;;;1.80;;
71296;SDS011;59082;50.658;4.608;2023-09-30T13:34:07;3.83;;;1.60;;
71296;SDS011;59082;50.658;4.608;2023-09-30T13:36:33;2.77;;;1.27;;
71296;SDS011;59082;50.658;4.608;2023-09-30T13:38:59;2.10;;;1.23;;
71296;SDS011;59082;50.658;4.608;2023-09-30T13:41:24;5.53;;;1.67;;
71296;SDS011;59082;50.658;4.608;2023-09-30T13:43:50;3.67;;;1.50;;
71296;SDS011;59082;50.658;4.608;2023-09-30T13:46:15;4.50;;;1.80;;
71296;SDS011;59082;50.658;4.608;2023-09-30T13:48:41;2.57;;;1.30;;
71296;SDS011;59082;50.658;4.608;2023-09-30T13:51:07;3.35;;;1.30;;
71296;SDS011;59082;50.658;4.608;2023-09-30T13:53:32;6.60;;;2.20;;
71296;SDS011;59082;50.658;4.608;2023-09-30T13:55:58;3.53;;;1.50;;
71296;SDS011;59082;50.658;4.608;2023-09-30T13:58:24;3.43;;;0.93;;
71296;SDS011;59082;50.658;4.608;2023-09-30T14:00:52;3.88;;;1.55;;
71296;SDS011;59082;50.658;4.608;2023-09-30T14:03:18;5.03;;;1.40;;
71296;SDS011;59082;50.658;4.608;2023-09-30T14:05:44;3.33;;;1.83;;
71296;SDS011;59082;50.658;4.608;2023-09-30T14:08:10;5.07;;;1.90;;
71296;SDS011;59082;50.658;4.608;2023-09-30T14:10:35;3.47;;;2.13;;
71296;SDS011;59082;50.658;4.608;2023-09-30T14:13:01;3.47;;;1.80;;
71296;SDS011;59082;50.658;4.608;2023-09-30T14:15:26;4.53;;;1.47;;
71296;SDS011;59082;50.658;4.608;2023-09-30T14:17:53;5.07;;;2.13;;
71296;SDS011;59082;50.658;4.608;2023-09-30T14:20:20;5.97;;;2.30;;
71296;SDS011;59082;50.658;4.608;2023-09-30T14:22:45;5.50;;;1.63;;
71296;SDS011;59082;50.658;4.608;2023-09-30T14:25:11;4.70;;;2.50;;
71296;SDS011;59082;50.658;4.608;2023-09-30T14:27:37;3.80;;;1.70;;
71296;SDS011;59082;50.658;4.608;2023-09-30T14:30:02;5.57;;;2.07;;
71296;SDS011;59082;50.658;4.608;2023-09-30T14:32:29;4.97;;;2.17;;
71296;SDS011;59082;50.658;4.608;2023-09-30T14:34:55;3.47;;;2.10;;
71296;SDS011;59082;50.658;4.608;2023-09-30T14:37:21;2.90;;;1.67;;
71296;SDS011;59082;50.658;4.608;2023-09-30T14:39:47;5.20;;;2.10;;
71296;SDS011;59082;50.658;4.608;2023-09-30T14:42:12;5.00;;;2.08;;
71296;SDS011;59082;50.658;4.608;2023-09-30T14:44:37;2.60;;;1.67;;
71296;SDS011;59082;50.658;4.608;2023-09-30T14:47:03;5.83;;;2.03;;
71296;SDS011;59082;50.658;4.608;2023-09-30T14:49:30;6.57;;;1.83;;
71296;SDS011;59082;50.658;4.608;2023-09-30T14:51:56;4.05;;;1.45;;
71296;SDS011;59082;50.658;4.608;2023-09-30T14:54:21;6.37;;;2.23;;
71296;SDS011;59082;50.658;4.608;2023-09-30T14:56:47;5.57;;;1.98;;
71296;SDS011;59082;50.658;4.608;2023-09-30T14:59:12;4.13;;;1.43;;
71296;SDS011;59082;50.658;4.608;2023-09-30T15:01:38;4.53;;;1.70;;
71296;SDS011;59082;50.658;4.608;2023-09-30T15:04:03;5.10;;;1.70;;
71296;SDS011;59082;50.658;4.608;2023-09-30T15:06:29;4.80;;;2.17;;
71296;SDS011;59082;50.658;4.608;2023-09-30T15:08:54;4.33;;;1.87;;
71296;SDS011;59082;50.658;4.608;2023-09-30T15:11:20;4.47;;;2.10;;
71296;SDS011;59082;50.658;4.608;2023-09-30T15:13:45;3.67;;;1.60;;
71296;SDS011;59082;50.658;4.608;2023-09-30T15:16:29;7.37;;;1.87;;
71296;SDS011;59082;50.658;4.608;2023-09-30T15:18:54;3.92;;;1.92;;
71296;SDS011;59082;50.658;4.608;2023-09-30T15:21:20;5.80;;;2.10;;
71296;SDS011;59082;50.658;4.608;2023-09-30T15:23:45;3.60;;;1.60;;
71296;SDS011;59082;50.658;4.608;2023-09-30T15:26:12;5.30;;;2.10;;
71296;SDS011;59082;50.658;4.608;2023-09-30T15:28:40;4.25;;;1.67;;
71296;SDS011;59082;50.658;4.608;2023-09-30T15:31:05;15.30;;;3.67;;
71296;SDS011;59082;50.658;4.608;2023-09-30T15:33:31;8.13;;;2.60;;
71296;SDS011;59082;50.658;4.608;2023-09-30T15:35:57;4.60;;;1.35;;
71296;SDS011;59082;50.658;4.608;2023-09-30T15:38:23;6.13;;;1.83;;
71296;SDS011;59082;50.658;4.608;2023-09-30T15:40:52;3.97;;;1.73;;
71296;SDS011;59082;50.658;4.608;2023-09-30T15:43:21;3.27;;;1.13;;
71296;SDS011;59082;50.658;4.608;2023-09-30T15:45:50;5.05;;;1.88;;
71296;SDS011;59082;50.658;4.608;2023-09-30T15:48:16;5.03;;;1.80;;
71296;SDS011;59082;50.658;4.608;2023-09-30T15:50:42;6.70;;;2.05;;
71296;SDS011;59082;50.658;4.608;2023-09-30T15:53:08;3.95;;;1.85;;
71296;SDS011;59082;50.658;4.608;2023-09-30T15:55:34;4.43;;;1.57;;
71296;SDS011;59082;50.658;4.608;2023-09-30T15:58:00;4.32;;;1.85;;
71296;SDS011;59082;50.658;4.608;2023-09-30T16:03:50;6.03;;;1.95;;
71296;SDS011;59082;50.658;4.608;2023-09-30T16:06:39;6.70;;;2.50;;
71296;SDS011;59082;50.658;4.608;2023-09-30T16:12:15;5.28;;;1.80;;
71296;SDS011;59082;50.658;4.608;2023-09-30T16:15:04;4.37;;;1.87;;
71296;SDS011;59082;50.658;4.608;2023-09-30T16:24:36;3.97;;;1.90;;
71296;SDS011;59082;50.658;4.608;2023-09-30T16:27:11;10.43;;;2.28;;
71296;SDS011;59082;50.658;4.608;2023-09-30T16:29:39;5.27;;;2.13;;
71296;SDS011;59082;50.658;4.608;2023-09-30T16:37:49;6.05;;;2.78;;
71296;SDS011;59082;50.658;4.608;2023-09-30T16:40:23;5.97;;;2.00;;
71296;SDS011;59082;50.658;4.608;2023-09-30T16:42:52;4.23;;;2.20;;
71296;SDS011;59082;50.658;4.608;2023-09-30T16:48:14;5.15;;;2.22;;
71296;SDS011;59082;50.658;4.608;2023-09-30T16:51:02;4.03;;;2.22;;
71296;SDS011;59082;50.658;4.608;2023-09-30T16:53:40;3.83;;;1.55;;
71296;SDS011;59082;50.658;4.608;2023-09-30T16:56:18;6.30;;;2.03;;
71296;SDS011;59082;50.658;4.608;2023-09-30T16:58:49;4.68;;;2.30;;
71296;SDS011;59082;50.658;4.608;2023-09-30T17:01:14;4.97;;;2.45;;
71296;SDS011;59082;50.658;4.608;2023-09-30T17:03:39;3.93;;;2.33;;
71296;SDS011;59082;50.658;4.608;2023-09-30T17:06:06;6.32;;;2.25;;
71296;SDS011;59082;50.658;4.608;2023-09-30T17:08:32;7.30;;;2.17;;
71296;SDS011;59082;50.658;4.608;2023-09-30T17:10:57;4.10;;;2.47;;
71296;SDS011;59082;50.658;4.608;2023-09-30T17:13:24;4.93;;;2.38;;